Time;durP1;ratioP1;P1;durP2;ratioP2;P2;SDS_P1;SDS_P2;PMS_P1;PMS_P2;Temp;Humidity;BMP_temperature;BMP_pressure;BME280_temperature;BME280_humidity;BME280_pressure;Samples;Min_cycle;Max_cycle;Signal;HPM_P1;HPM_P2
2022/11/08 00:01:30;;;;;;;20.00;10.83;;;8.30;99.90;;;;;;5014448;28;20271;-85
2022/11/08 00:04:20;;;;;;;20.07;11.70;;;8.30;99.90;;;;;;5001289;28;20203;-83
2022/11/08 00:15:07;;;;;;;20.63;11.70;;;8.30;99.90;;;;;;4996134;28;20203;-84
2022/11/08 00:17:37;;;;;;;22.10;12.23;;;8.30;99.90;;;;;;5013684;28;20203;-83
2022/11/08 00:20:05;;;;;;;19.37;11.60;;;8.40;99.90;;;;;;4980089;28;20635;-82
2022/11/08 00:22:35;;;;;;;23.63;12.60;;;8.30;99.90;;;;;;4999021;28;20238;-82
2022/11/08 00:25:09;;;;;;;19.93;11.60;;;8.30;99.90;;;;;;4999426;28;20230;-85
2022/11/08 00:27:36;;;;;;;21.17;11.63;;;8.30;99.90;;;;;;5018577;28;20640;-84
2022/11/08 00:30:04;;;;;;;21.27;11.53;;;8.30;99.90;;;;;;4999545;28;20680;-84
2022/11/08 00:32:31;;;;;;;18.73;11.50;;;8.30;99.90;;;;;;5017822;28;20245;-85
2022/11/08 00:34:59;;;;;;;21.23;11.90;;;8.30;99.90;;;;;;4983600;28;20235;-84
2022/11/08 00:37:27;;;;;;;24.27;11.97;;;8.30;99.90;;;;;;4999143;28;20200;-84
2022/11/08 00:39:54;;;;;;;18.03;11.70;;;8.30;99.90;;;;;;4999187;28;20253;-84
2022/11/08 00:42:21;;;;;;;21.00;12.23;;;8.30;99.90;;;;;;4999207;28;20227;-84
2022/11/08 00:44:48;;;;;;;22.50;12.30;;;8.30;99.90;;;;;;5016428;28;20188;-83
2022/11/08 00:47:15;;;;;;;22.00;12.30;;;8.30;99.90;;;;;;4999152;28;20254;-85
2022/11/08 00:49:42;;;;;;;21.47;11.80;;;8.30;99.90;;;;;;5016495;28;20642;-86
2022/11/08 00:52:09;;;;;;;19.07;12.07;;;8.40;99.90;;;;;;4998640;28;20277;-86
2022/11/08 00:54:36;;;;;;;20.17;12.07;;;8.40;99.90;;;;;;5016442;28;20195;-87
2022/11/08 00:57:03;;;;;;;21.10;11.77;;;8.40;99.90;;;;;;4999941;28;20657;-86
2022/11/08 00:59:30;;;;;;;21.50;12.10;;;8.40;99.90;;;;;;5017022;28;20206;-86
2022/11/08 01:01:57;;;;;;;23.33;12.40;;;8.40;99.90;;;;;;5017818;28;20551;-85
2022/11/08 01:04:25;;;;;;;22.57;12.60;;;8.30;99.90;;;;;;5000759;28;20188;-86
2022/11/08 01:06:52;;;;;;;20.37;11.73;;;8.30;99.90;;;;;;5001694;28;20199;-85
2022/11/08 01:09:19;;;;;;;22.10;12.00;;;8.30;99.90;;;;;;5001941;28;20194;-84
2022/11/08 01:11:46;;;;;;;22.63;12.93;;;8.30;99.90;;;;;;5001139;28;20290;-85
2022/11/08 01:14:16;;;;;;;22.77;12.50;;;8.40;99.90;;;;;;5001232;28;20224;-86
2022/11/08 01:16:46;;;;;;;26.30;13.17;;;8.40;99.90;;;;;;5003406;28;20196;-87
2022/11/08 01:19:16;;;;;;;23.73;12.70;;;8.40;99.90;;;;;;5017832;28;20279;-86
2022/11/08 01:21:45;;;;;;;21.30;12.17;;;8.40;99.90;;;;;;5016591;28;20658;-86
2022/11/08 01:24:13;;;;;;;21.73;11.97;;;8.40;99.90;;;;;;4983679;28;20196;-86
2022/11/08 01:26:40;;;;;;;21.73;12.47;;;8.40;99.90;;;;;;4997989;28;20295;-85
2022/11/08 01:29:09;;;;;;;22.53;12.73;;;8.50;99.90;;;;;;4981857;28;20198;-85
2022/11/08 01:31:36;;;;;;;19.90;11.83;;;8.50;99.90;;;;;;5018989;28;20225;-86
2022/11/08 01:34:04;;;;;;;21.13;12.37;;;8.50;99.90;;;;;;5017567;28;20306;-84
2022/11/08 01:36:32;;;;;;;22.83;12.50;;;8.50;99.90;;;;;;4999855;28;20200;-86
2022/11/08 01:39:01;;;;;;;19.43;11.87;;;8.50;99.90;;;;;;5008693;28;20274;-86
2022/11/08 01:41:29;;;;;;;21.23;12.57;;;8.50;99.90;;;;;;4987390;28;20200;-79
2022/11/08 01:43:58;;;;;;;22.57;12.90;;;8.60;99.90;;;;;;4997750;28;20580;-86
2022/11/08 01:46:45;;;;;;;19.03;12.07;;;8.50;99.90;;;;;;5015794;28;20185;-85
2022/11/08 01:49:31;;;;;;;23.77;12.70;;;8.60;99.90;;;;;;4981859;28;20230;-86
2022/11/08 01:52:11;;;;;;;25.57;12.47;;;8.50;99.90;;;;;;4998050;28;20622;-84
2022/11/08 01:54:50;;;;;;;23.57;12.73;;;8.60;99.90;;;;;;4998437;28;20337;-86
2022/11/08 01:57:34;;;;;;;21.00;12.13;;;8.50;99.90;;;;;;4982418;28;20201;-86
2022/11/08 02:00:07;;;;;;;22.97;12.30;;;8.50;99.90;;;;;;4981678;28;20213;-85
2022/11/08 02:02:35;;;;;;;19.30;11.83;;;8.50;99.90;;;;;;4997680;28;20246;-84
2022/11/08 02:05:05;;;;;;;20.93;12.07;;;8.60;99.90;;;;;;4997685;28;20188;-85
2022/11/08 02:07:33;;;;;;;21.00;12.33;;;8.50;99.90;;;;;;4997554;28;20605;-82
2022/11/08 02:10:01;;;;;;;23.20;12.47;;;8.50;99.90;;;;;;5011084;28;20188;-80
2022/11/08 02:12:29;;;;;;;21.93;12.03;;;8.50;99.90;;;;;;4997634;28;20299;-85
2022/11/08 02:14:56;;;;;;;20.40;12.17;;;8.50;99.90;;;;;;5015023;28;20565;-85
2022/11/08 02:17:32;;;;;;;28.93;13.73;;;8.50;99.90;;;;;;4997200;28;20273;-83
2022/11/08 02:19:59;;;;;;;19.80;11.90;;;8.50;99.90;;;;;;4997107;28;20202;-83
2022/11/08 02:22:36;;;;;;;25.17;12.43;;;8.60;99.90;;;;;;4997563;28;20664;-81
2022/11/08 02:25:05;;;;;;;20.07;12.10;;;8.50;99.90;;;;;;4993458;22;20207;-84
2022/11/08 02:27:32;;;;;;;24.93;12.53;;;8.50;99.90;;;;;;4997784;28;20200;-85
2022/11/08 02:29:59;;;;;;;20.07;12.27;;;8.60;99.90;;;;;;4997314;28;20552;-84
2022/11/08 02:32:39;;;;;;;26.17;12.77;;;8.60;99.90;;;;;;4997047;28;20188;-86
2022/11/08 02:35:17;;;;;;;21.27;12.57;;;8.60;99.90;;;;;;5014362;28;20231;-85
2022/11/08 02:37:45;;;;;;;25.87;13.00;;;8.70;99.90;;;;;;4997198;28;20238;-84
2022/11/08 02:40:13;;;;;;;24.10;12.43;;;8.60;99.90;;;;;;4997069;28;20215;-85
2022/11/08 02:42:40;;;;;;;24.43;12.83;;;8.60;99.90;;;;;;4957033;28;20201;-82
2022/11/08 02:45:09;;;;;;;24.77;12.90;;;8.60;99.90;;;;;;4972231;28;20209;-84
2022/11/08 02:47:36;;;;;;;21.27;12.60;;;8.50;99.90;;;;;;4973379;28;20206;-86
2022/11/08 02:50:06;;;;;;;24.07;13.03;;;8.60;99.90;;;;;;4973877;28;20192;-86
2022/11/08 02:52:34;;;;;;;23.93;12.80;;;8.50;99.90;;;;;;4973250;28;20190;-81
2022/11/08 02:55:01;;;;;;;24.00;12.43;;;8.60;99.90;;;;;;4956366;28;20232;-85
2022/11/08 02:57:28;;;;;;;23.60;12.57;;;8.60;99.90;;;;;;4940313;28;20198;-84
2022/11/08 02:59:55;;;;;;;22.80;12.27;;;8.60;99.90;;;;;;4962540;28;20233;-84
2022/11/08 03:02:22;;;;;;;21.90;13.00;;;8.60;99.90;;;;;;4996654;28;20664;-81
2022/11/08 03:04:52;;;;;;;21.73;13.23;;;8.60;99.90;;;;;;4996619;28;20287;-83
2022/11/08 03:07:19;;;;;;;25.37;12.80;;;8.60;99.90;;;;;;4996454;28;20628;-85
2022/11/08 03:09:50;;;;;;;21.00;12.67;;;8.60;99.90;;;;;;4996443;28;20200;-83
2022/11/08 03:12:19;;;;;;;24.53;12.97;;;8.70;99.90;;;;;;4996074;28;20211;-83
2022/11/08 03:14:48;;;;;;;20.80;12.53;;;8.70;99.90;;;;;;5013754;28;20218;-86
2022/11/08 03:17:15;;;;;;;21.23;12.40;;;8.70;99.90;;;;;;5013823;28;20239;-82
2022/11/08 03:19:43;;;;;;;23.00;12.90;;;8.70;99.90;;;;;;4996546;28;20181;-83
2022/11/08 03:22:11;;;;;;;22.70;13.20;;;8.70;99.90;;;;;;4980378;28;20184;-83
2022/11/08 03:24:38;;;;;;;23.17;13.20;;;8.60;99.90;;;;;;4996000;28;20294;-80
2022/11/08 03:27:05;;;;;;;23.30;12.83;;;8.70;99.90;;;;;;4995715;28;20301;-84
2022/11/08 03:29:32;;;;;;;21.90;12.83;;;8.70;99.90;;;;;;4995790;28;20671;-83
2022/11/08 03:31:59;;;;;;;21.13;12.93;;;8.70;99.90;;;;;;4995982;28;20258;-83
2022/11/08 03:34:26;;;;;;;25.80;13.70;;;8.70;99.90;;;;;;4995749;28;20281;-86
2022/11/08 03:36:53;;;;;;;23.43;13.47;;;8.70;99.90;;;;;;5010666;28;20239;-79
2022/11/08 03:39:20;;;;;;;22.63;13.30;;;8.70;99.90;;;;;;4979913;28;20261;-85
2022/11/08 03:41:47;;;;;;;26.53;13.27;;;8.80;99.90;;;;;;4995732;28;20230;-83
2022/11/08 03:44:14;;;;;;;22.70;13.03;;;8.80;99.90;;;;;;4997196;28;20208;-85
2022/11/08 03:46:41;;;;;;;24.47;13.13;;;8.80;99.90;;;;;;4995924;28;20282;-85
2022/11/08 03:49:08;;;;;;;23.77;13.57;;;8.80;99.90;;;;;;4995724;28;20290;-86
2022/11/08 03:51:35;;;;;;;29.80;14.17;;;8.80;99.90;;;;;;4996005;28;20215;-83
2022/11/08 03:54:05;;;;;;;22.53;13.10;;;8.70;99.90;;;;;;5013132;28;20226;-85
2022/11/08 03:56:33;;;;;;;30.07;13.63;;;8.70;99.90;;;;;;4979068;28;20741;-86
2022/11/08 03:59:01;;;;;;;24.63;13.73;;;8.70;99.90;;;;;;4979053;28;20211;-84
2022/11/08 04:01:28;;;;;;;25.17;13.17;;;8.70;99.90;;;;;;4995720;28;20227;-84
2022/11/08 04:03:56;;;;;;;24.90;13.50;;;8.70;99.90;;;;;;5013279;28;20226;-85
2022/11/08 04:06:23;;;;;;;22.40;13.60;;;8.70;99.90;;;;;;5013328;28;20206;-85
2022/11/08 04:08:50;;;;;;;26.87;13.53;;;8.70;99.90;;;;;;5001085;23;20259;-84
2022/11/08 04:16:55;;;;;;;24.53;13.17;;;8.80;99.90;;;;;;4992164;28;20606;-85
2022/11/08 04:22:10;;;;;;;20.17;12.23;;;8.70;99.90;;;;;;4992511;28;20201;-81
2022/11/08 04:24:37;;;;;;;22.33;13.00;;;8.80;99.90;;;;;;4992159;28;20197;-85
2022/11/08 04:27:04;;;;;;;24.07;13.40;;;8.80;99.90;;;;;;4960129;28;20325;-85
2022/11/08 04:29:31;;;;;;;24.23;13.57;;;8.70;99.90;;;;;;4991860;28;20297;-84
2022/11/08 04:31:59;;;;;;;20.67;12.77;;;8.70;99.90;;;;;;4992326;28;20211;-81
2022/11/08 04:34:26;;;;;;;22.27;13.53;;;8.70;99.90;;;;;;4993271;28;20295;-84
2022/11/08 04:36:56;;;;;;;24.37;14.07;;;8.60;99.90;;;;;;4991875;28;20233;-83
2022/11/08 04:39:23;;;;;;;24.37;12.90;;;8.60;99.90;;;;;;4992038;28;20214;-83
2022/11/08 04:41:50;;;;;;;23.70;13.13;;;8.70;99.90;;;;;;4996172;28;20207;-84
2022/11/08 04:44:22;;;;;;;24.50;13.00;;;8.70;99.90;;;;;;4977199;28;20687;-79
2022/11/08 04:46:49;;;;;;;22.93;13.93;;;8.60;99.90;;;;;;4991988;28;20197;-86
2022/11/08 04:49:16;;;;;;;24.67;13.17;;;8.60;99.90;;;;;;4994188;28;20247;-87
2022/11/08 04:51:43;;;;;;;23.63;13.37;;;8.60;99.90;;;;;;4993480;28;20188;-85
2022/11/08 04:54:10;;;;;;;23.37;13.50;;;8.60;99.90;;;;;;4992424;28;20279;-85
2022/11/08 04:56:37;;;;;;;23.77;13.07;;;8.50;99.90;;;;;;4991780;28;20283;-85
2022/11/08 04:59:06;;;;;;;25.67;13.70;;;8.50;99.90;;;;;;4991472;28;20257;-84
2022/11/08 05:01:37;;;;;;;23.30;13.07;;;8.40;99.90;;;;;;4991869;28;20227;-85
2022/11/08 05:04:05;;;;;;;23.87;12.67;;;8.40;99.90;;;;;;4975230;28;20207;-85
2022/11/08 05:06:32;;;;;;;21.27;12.50;;;8.40;99.90;;;;;;4993007;28;20201;-84
2022/11/08 05:08:59;;;;;;;23.67;13.00;;;8.30;99.90;;;;;;4993972;28;20232;-83
2022/11/08 05:11:28;;;;;;;21.73;13.03;;;8.30;99.90;;;;;;4995557;28;20213;-85
2022/11/08 05:13:56;;;;;;;23.40;13.33;;;8.30;99.90;;;;;;4997105;28;20226;-85
2022/11/08 05:16:29;;;;;;;25.20;14.13;;;8.20;99.90;;;;;;4996704;28;20210;-84
2022/11/08 05:18:57;;;;;;;23.70;13.63;;;8.20;99.90;;;;;;4994982;28;20254;-86
2022/11/08 05:24:12;;;;;;;27.67;13.97;;;8.10;99.90;;;;;;5002282;28;20212;-84
2022/11/08 05:26:41;;;;;;;22.60;13.10;;;8.10;99.90;;;;;;4999004;28;20208;-83
2022/11/08 05:29:08;;;;;;;25.20;14.23;;;8.10;99.90;;;;;;4994860;28;20196;-85
2022/11/08 05:31:35;;;;;;;23.03;13.50;;;8.10;99.90;;;;;;4994733;28;20239;-84
2022/11/08 05:34:06;;;;;;;23.80;14.30;;;7.90;99.90;;;;;;4996280;28;20240;-85
2022/11/08 05:36:33;;;;;;;25.30;13.90;;;8.00;99.90;;;;;;4995005;28;20201;-86
2022/11/08 05:39:00;;;;;;;24.83;13.47;;;7.90;99.90;;;;;;4994667;28;20304;-86
2022/11/08 05:41:28;;;;;;;24.03;13.40;;;7.90;99.90;;;;;;4994911;28;20205;-84
2022/11/08 05:43:55;;;;;;;23.53;13.63;;;7.90;99.90;;;;;;4994540;28;20205;-84
2022/11/08 05:46:22;;;;;;;22.97;13.80;;;8.00;99.90;;;;;;4994288;28;20207;-82
2022/11/08 05:48:49;;;;;;;25.03;14.30;;;7.90;99.90;;;;;;4995181;28;20210;-83
2022/11/08 05:51:19;;;;;;;35.57;14.87;;;7.90;99.90;;;;;;4994534;28;20192;-83
2022/11/08 05:53:47;;;;;;;23.03;13.80;;;7.80;99.90;;;;;;4978329;28;20681;-81
2022/11/08 05:56:34;;;;;;;24.57;13.93;;;7.80;99.90;;;;;;4994624;28;20242;-84
2022/11/08 05:59:01;;;;;;;24.23;13.90;;;7.80;99.90;;;;;;4994266;28;20199;-86
2022/11/08 06:01:28;;;;;;;25.87;14.00;;;7.80;99.90;;;;;;4994350;28;20205;-82
2022/11/08 06:03:55;;;;;;;26.33;14.47;;;7.80;99.90;;;;;;4994321;28;20643;-86
2022/11/08 06:06:22;;;;;;;25.90;13.80;;;7.70;99.90;;;;;;4994168;28;20251;-84
2022/11/08 06:08:50;;;;;;;22.53;14.23;;;7.80;99.90;;;;;;4993961;28;20267;-85
2022/11/08 06:11:22;;;;;;;22.87;13.57;;;7.70;99.90;;;;;;4994247;28;20207;-87
2022/11/08 06:13:50;;;;;;;26.83;14.83;;;7.70;99.90;;;;;;4994512;28;20219;-88
2022/11/08 06:16:18;;;;;;;25.40;14.30;;;7.70;99.90;;;;;;4994255;28;20208;-87
2022/11/08 06:18:46;;;;;;;22.53;13.70;;;7.80;99.90;;;;;;4995076;28;20191;-85
2022/11/08 06:21:15;;;;;;;24.07;13.53;;;7.80;99.90;;;;;;4995316;28;20197;-89
2022/11/08 06:23:42;;;;;;;26.63;14.27;;;7.80;99.90;;;;;;4994165;28;20268;-78
2022/11/08 06:26:10;;;;;;;24.20;13.63;;;7.80;99.90;;;;;;4995772;28;20284;-87
2022/11/08 06:28:37;;;;;;;22.60;13.40;;;7.80;99.90;;;;;;4995757;28;20191;-88
2022/11/08 06:31:04;;;;;;;25.57;13.33;;;7.90;99.90;;;;;;4994693;28;20204;-80
2022/11/08 06:33:31;;;;;;;23.53;13.43;;;7.90;99.90;;;;;;4994233;28;20208;-81
2022/11/08 06:35:58;;;;;;;24.90;13.23;;;7.90;99.90;;;;;;4995219;28;20185;-83
2022/11/08 06:38:25;;;;;;;23.43;12.93;;;7.90;99.90;;;;;;4995217;28;20196;-81
2022/11/08 06:40:52;;;;;;;23.03;12.90;;;7.90;99.90;;;;;;4993911;28;20202;-81
2022/11/08 06:43:19;;;;;;;22.53;12.67;;;8.00;99.90;;;;;;4993751;28;20203;-81
2022/11/08 06:45:47;;;;;;;22.20;12.57;;;8.20;99.90;;;;;;4994728;28;20210;-81
2022/11/08 06:48:13;;;;;;;24.07;12.23;;;8.20;99.90;;;;;;4993962;28;20193;-84
2022/11/08 06:50:41;;;;;;;21.27;12.43;;;8.30;99.90;;;;;;4993716;28;20208;-82
2022/11/08 06:53:12;;;;;;;24.20;12.93;;;8.50;99.90;;;;;;4993725;28;20197;-78
2022/11/08 06:55:39;;;;;;;22.60;12.50;;;8.60;99.90;;;;;;4993650;28;20233;-82
2022/11/08 06:58:06;;;;;;;21.30;11.70;;;8.70;99.90;;;;;;4994878;28;20243;-81
2022/11/08 07:00:33;;;;;;;21.53;11.80;;;8.80;99.90;;;;;;4993260;28;20210;-81
2022/11/08 07:03:02;;;;;;;20.67;11.47;;;8.80;99.90;;;;;;4993377;28;20203;-84
2022/11/08 07:05:32;;;;;;;18.23;11.50;;;8.80;99.90;;;;;;4995392;28;20562;-83
2022/11/08 07:07:59;;;;;;;21.37;11.90;;;8.80;99.90;;;;;;4998232;28;20228;-83
2022/11/08 07:10:30;;;;;;;19.93;11.50;;;8.90;99.90;;;;;;5002708;28;20196;-84
2022/11/08 07:13:10;;;;;;;24.30;11.93;;;8.90;99.90;;;;;;4994936;28;20193;-83
2022/11/08 07:15:37;;;;;;;21.30;11.30;;;8.90;99.90;;;;;;4994801;28;20668;-83
2022/11/08 07:18:07;;;;;;;19.67;11.30;;;8.90;99.90;;;;;;4994097;28;20200;-79
2022/11/08 07:20:34;;;;;;;20.37;11.23;;;8.90;99.90;;;;;;4993497;28;20223;-80
2022/11/08 07:23:04;;;;;;;19.40;11.20;;;8.90;99.90;;;;;;4992634;28;20185;-79
2022/11/08 07:25:32;;;;;;;20.23;11.50;;;8.90;99.90;;;;;;4992791;28;20199;-78
2022/11/08 07:28:04;;;;;;;20.30;11.07;;;8.80;99.90;;;;;;4992729;28;20214;-83
2022/11/08 07:30:32;;;;;;;21.93;10.60;;;9.00;99.90;;;;;;4992184;28;20204;-80
2022/11/08 07:32:58;;;;;;;19.37;11.07;;;9.50;99.90;;;;;;4976242;28;20212;-81
2022/11/08 07:35:26;;;;;;;20.43;10.07;;;9.90;99.90;;;;;;4992440;28;20216;-82
2022/11/08 07:37:54;;;;;;;20.73;10.60;;;10.10;99.90;;;;;;4992249;28;20196;-81
2022/11/08 07:40:21;;;;;;;20.13;10.47;;;10.20;99.90;;;;;;4992377;28;20258;-81
2022/11/08 07:42:48;;;;;;;18.90;10.73;;;10.10;99.90;;;;;;4992507;28;20196;-83
2022/11/08 07:45:35;;;;;;;18.03;9.80;;;10.50;99.90;;;;;;4993439;28;20254;-80
2022/11/08 07:48:06;;;;;;;16.87;9.87;;;10.90;99.90;;;;;;4992525;28;20197;-83
2022/11/08 07:50:41;;;;;;;19.77;10.50;;;11.20;99.90;;;;;;4977832;28;20196;-86
2022/11/08 07:53:09;;;;;;;21.30;9.90;;;11.20;99.90;;;;;;4994231;28;20197;-84
2022/11/08 07:55:37;;;;;;;21.63;9.50;;;11.20;99.90;;;;;;4993091;28;20616;-84
2022/11/08 07:58:04;;;;;;;17.53;10.20;;;11.20;99.90;;;;;;4992989;28;20204;-80
2022/11/08 08:00:35;;;;;;;17.10;9.00;;;11.50;99.90;;;;;;4993493;28;20553;-80
2022/11/08 08:03:04;;;;;;;17.37;9.73;;;11.70;99.90;;;;;;4993201;28;20288;-84
2022/11/08 08:05:36;;;;;;;14.90;8.90;;;11.70;99.90;;;;;;4993546;28;20260;-85
2022/11/08 08:08:04;;;;;;;22.77;9.87;;;11.90;99.90;;;;;;4992164;28;20664;-80
2022/11/08 08:10:31;;;;;;;19.07;9.87;;;11.80;99.90;;;;;;4992181;28;20259;-83
2022/11/08 08:12:59;;;;;;;19.80;10.37;;;11.90;99.90;;;;;;4992618;28;20200;-82
2022/11/08 08:15:26;;;;;;;16.37;9.67;;;12.10;99.90;;;;;;4993156;28;20231;-82
2022/11/08 08:17:53;;;;;;;16.23;9.57;;;12.30;99.90;;;;;;4993563;28;20201;-85
2022/11/08 08:20:20;;;;;;;15.97;10.20;;;12.50;99.90;;;;;;4992094;28;20658;-85
2022/11/08 08:22:49;;;;;;;16.80;9.83;;;12.50;99.90;;;;;;4993537;28;20276;-82
2022/11/08 08:25:17;;;;;;;20.13;10.67;;;12.40;99.90;;;;;;4992101;28;20192;-83
2022/11/08 08:27:52;;;;;;;17.17;9.70;;;12.60;99.90;;;;;;4993388;28;20188;-80
2022/11/08 08:30:20;;;;;;;20.63;10.37;;;12.60;99.90;;;;;;4993974;28;20196;-84
2022/11/08 08:32:48;;;;;;;17.17;8.20;;;12.50;99.90;;;;;;4992372;28;20255;-85
2022/11/08 08:35:35;;;;;;;21.60;11.90;;;12.40;99.90;;;;;;4991863;28;20299;-85
2022/11/08 08:38:04;;;;;;;20.17;10.60;;;12.40;99.90;;;;;;4993168;28;20216;-85
2022/11/08 08:40:32;;;;;;;20.27;9.37;;;12.20;99.90;;;;;;4993917;28;20529;-87
2022/11/08 08:42:59;;;;;;;17.27;8.67;;;12.20;99.90;;;;;;4993895;28;20563;-87
2022/11/08 08:45:27;;;;;;;12.90;8.03;;;12.30;99.90;;;;;;4997435;28;20193;-78
2022/11/08 08:47:55;;;;;;;17.80;8.23;;;12.20;99.90;;;;;;4980097;28;20200;-85
2022/11/08 08:50:23;;;;;;;19.30;8.07;;;12.20;99.90;;;;;;4995642;28;20197;-76
2022/11/08 08:52:50;;;;;;;15.77;8.17;;;12.20;99.90;;;;;;4995690;28;20319;-80
2022/11/08 08:55:17;;;;;;;13.77;8.07;;;12.20;99.90;;;;;;4996574;28;20248;-85
2022/11/08 08:57:48;;;;;;;14.90;7.20;;;12.10;99.90;;;;;;4995634;28;20290;-85
2022/11/08 09:00:16;;;;;;;14.70;7.20;;;12.10;99.90;;;;;;4995561;28;20244;-84
2022/11/08 09:03:04;;;;;;;16.13;7.40;;;12.00;99.90;;;;;;4995548;28;20618;-84
2022/11/08 09:05:32;;;;;;;15.70;7.23;;;12.20;99.90;;;;;;4996001;28;20215;-84
2022/11/08 09:08:00;;;;;;;18.93;7.97;;;12.10;99.90;;;;;;4995477;28;20243;-81
2022/11/08 09:10:27;;;;;;;15.53;7.03;;;12.10;99.90;;;;;;4996559;28;20275;-86
2022/11/08 09:12:54;;;;;;;16.17;7.40;;;12.10;99.90;;;;;;4994893;28;20287;-82
2022/11/08 09:15:22;;;;;;;13.67;6.90;;;12.30;99.90;;;;;;4978300;28;20240;-78
2022/11/08 09:17:49;;;;;;;14.43;6.80;;;12.20;99.90;;;;;;4994987;28;20189;-78
2022/11/08 09:20:15;;;;;;;15.07;7.30;;;12.30;99.90;;;;;;4995756;28;20673;-80
2022/11/08 09:22:42;;;;;;;14.53;6.73;;;12.30;99.90;;;;;;4996185;28;20215;-80
2022/11/08 09:25:09;;;;;;;12.50;6.80;;;12.40;99.90;;;;;;4994457;28;20241;-82
2022/11/08 09:27:36;;;;;;;15.83;6.93;;;12.60;99.90;;;;;;5002202;28;20537;-84
2022/11/08 09:30:04;;;;;;;12.27;6.17;;;12.60;99.90;;;;;;5001486;28;20205;-81
2022/11/08 09:32:31;;;;;;;10.20;5.80;;;12.60;99.90;;;;;;4998890;28;20228;-86
2022/11/08 09:35:19;;;;;;;10.60;6.03;;;12.70;99.90;;;;;;4997231;28;20304;-85
2022/11/08 09:37:46;;;;;;;12.67;6.30;;;12.70;99.90;;;;;;4996950;28;20220;-82
2022/11/08 09:40:31;;;;;;;12.00;6.13;;;12.90;99.90;;;;;;4995592;28;20204;-81
2022/11/08 09:43:14;;;;;;;14.13;5.80;;;13.00;99.90;;;;;;4994545;28;20243;-83
2022/11/08 09:45:45;;;;;;;11.97;5.60;;;13.00;99.90;;;;;;4994430;28;20283;-82
2022/11/08 09:48:30;;;;;;;13.77;6.17;;;13.10;99.90;;;;;;4994474;28;20197;-81
2022/11/08 09:51:04;;;;;;;15.20;5.97;;;13.20;99.90;;;;;;4994564;28;20196;-85
2022/11/08 09:53:37;;;;;;;12.60;5.50;;;13.50;99.90;;;;;;4993633;28;20637;-84
2022/11/08 09:56:06;;;;;;;12.50;5.87;;;13.70;99.90;;;;;;4994385;28;20245;-80
2022/11/08 09:58:49;;;;;;;15.40;6.30;;;13.80;99.90;;;;;;4994188;28;20212;-82
2022/11/08 10:01:17;;;;;;;15.23;5.87;;;14.00;99.90;;;;;;4994156;28;20200;-85
2022/11/08 10:03:52;;;;;;;10.07;5.40;;;14.10;99.90;;;;;;4994568;28;20200;-87
2022/11/08 10:07:08;;;;;;;10.37;5.17;;;14.20;99.90;;;;;;4993814;28;20203;-81
2022/11/08 10:09:56;;;;;;;10.10;4.60;;;14.20;99.90;;;;;;4954054;29;20209;-85
2022/11/08 10:12:49;;;;;;;14.40;5.30;;;14.40;99.90;;;;;;4954258;29;20214;-83
2022/11/08 10:15:28;;;;;;;11.60;4.60;;;14.50;99.90;;;;;;4954126;29;20718;-82
2022/11/08 10:18:11;;;;;;;10.03;4.73;;;14.60;99.90;;;;;;4938231;28;20691;-84
2022/11/08 10:21:04;;;;;;;7.57;4.47;;;14.60;99.90;;;;;;4938339;29;20206;-82
2022/11/08 10:23:30;;;;;;;14.27;5.33;;;14.40;99.90;;;;;;4954130;29;20557;-81
2022/11/08 10:26:08;;;;;;;10.93;4.70;;;14.30;99.90;;;;;;4954536;29;20204;-84
2022/11/08 10:28:50;;;;;;;9.63;4.37;;;14.40;99.90;;;;;;4956668;29;20624;-86
2022/11/08 10:31:19;;;;;;;8.67;4.47;;;14.30;99.90;;;;;;4938041;29;20203;-86
2022/11/08 10:33:49;;;;;;;8.17;4.47;;;14.30;99.90;;;;;;4938362;29;20203;-85
2022/11/08 10:36:25;;;;;;;10.13;4.33;;;14.40;99.90;;;;;;4955438;28;20245;-86
2022/11/08 10:39:07;;;;;;;10.03;4.67;;;14.40;99.90;;;;;;4938383;29;20675;-85
2022/11/08 10:41:37;;;;;;;13.83;5.03;;;14.30;99.90;;;;;;4937868;29;20665;-84
2022/11/08 10:44:10;;;;;;;10.67;5.17;;;14.40;99.90;;;;;;4954244;29;20202;-85
2022/11/08 10:46:47;;;;;;;11.00;4.67;;;14.40;99.90;;;;;;4989087;28;20208;-85
2022/11/08 10:49:24;;;;;;;9.37;4.63;;;14.60;99.90;;;;;;4993596;28;20197;-84
2022/11/08 10:51:57;;;;;;;11.73;4.90;;;14.60;99.90;;;;;;4994877;28;20198;-84
2022/11/08 10:54:54;;;;;;;12.13;4.10;;;14.70;99.90;;;;;;4993477;28;20292;-83
2022/11/08 10:57:27;;;;;;;8.20;3.93;;;14.70;99.90;;;;;;4993687;28;20718;-85
2022/11/08 10:59:55;;;;;;;11.07;3.97;;;14.70;99.90;;;;;;4993738;28;20221;-87
2022/11/08 11:02:31;;;;;;;8.10;3.53;;;14.70;99.90;;;;;;4995024;28;20224;-79
2022/11/08 11:05:15;;;;;;;9.57;3.97;;;14.60;99.90;;;;;;4995683;28;20209;-83
2022/11/08 11:08:03;;;;;;;8.03;3.50;;;14.50;99.90;;;;;;4996514;28;20705;-83
2022/11/08 11:10:36;;;;;;;6.23;3.50;;;14.60;99.90;;;;;;4996775;28;20228;-83
2022/11/08 11:13:13;;;;;;;9.87;3.70;;;14.70;99.90;;;;;;4993678;28;20204;-85
2022/11/08 11:15:45;;;;;;;7.77;3.77;;;14.70;99.90;;;;;;4992681;28;20234;-83
2022/11/08 11:18:29;;;;;;;6.83;3.70;;;14.70;99.90;;;;;;4993304;28;20200;-83
2022/11/08 11:21:06;;;;;;;10.77;4.63;;;14.90;99.90;;;;;;4992875;28;20188;-86
2022/11/08 11:23:41;;;;;;;7.20;3.60;;;15.30;99.90;;;;;;4994443;28;20291;-87
2022/11/08 11:26:18;;;;;;;7.17;4.00;;;15.90;99.90;;;;;;4993085;28;20319;-86
2022/11/08 11:29:03;;;;;;;8.90;4.13;;;16.50;99.90;;;;;;4993076;28;20664;-87
2022/11/08 11:31:36;;;;;;;7.10;3.87;;;17.20;99.90;;;;;;4992843;28;20232;-86
2022/11/08 11:34:18;;;;;;;6.23;3.60;;;17.50;99.90;;;;;;4992969;28;20199;-84
2022/11/08 11:37:00;;;;;;;5.97;3.40;;;18.10;99.90;;;;;;4992450;28;20216;-87
2022/11/08 11:39:50;;;;;;;8.93;3.80;;;19.40;99.90;;;;;;4992780;28;20201;-88
2022/11/08 11:42:51;;;;;;;7.43;3.60;;;20.40;99.90;;;;;;4994240;28;20272;-95
2022/11/08 11:45:32;;;;;;;5.00;3.20;;;20.80;99.90;;;;;;4993857;28;20196;-88
2022/11/08 11:48:10;;;;;;;10.73;3.57;;;21.20;99.90;;;;;;4992742;28;20651;-88
2022/11/08 11:50:40;;;;;;;7.70;3.77;;;21.20;99.90;;;;;;4993944;28;20591;-88
2022/11/08 11:53:15;;;;;;;4.80;3.10;;;21.00;99.90;;;;;;4992225;28;20546;-83
2022/11/08 11:55:57;;;;;;;5.87;3.20;;;21.40;99.90;;;;;;4992353;28;20224;-86
2022/11/08 11:58:46;;;;;;;6.63;3.60;;;20.90;99.90;;;;;;4992194;28;20678;-85
2022/11/08 12:01:44;;;;;;;8.97;3.53;;;21.00;99.90;;;;;;4976244;28;20605;-87
2022/11/08 12:04:52;;;;;;;5.97;3.57;;;20.70;99.90;;;;;;4992147;28;20216;-87
2022/11/08 12:07:31;;;;;;;8.37;3.80;;;21.30;99.90;;;;;;4995391;28;20231;-83
2022/11/08 12:10:21;;;;;;;11.57;4.30;;;21.90;99.90;;;;;;4995686;28;20250;-85
2022/11/08 12:13:12;;;;;;;10.60;4.07;;;21.80;99.90;;;;;;5013694;28;20226;-83
2022/11/08 12:15:51;;;;;;;7.50;4.00;;;21.20;99.90;;;;;;5015091;28;20570;-84
2022/11/08 12:18:48;;;;;;;6.00;3.90;;;20.90;99.90;;;;;;4998186;28;20613;-88
2022/11/08 12:21:45;;;;;;;8.30;4.00;;;20.20;99.90;;;;;;5017115;28;20558;-81
2022/11/08 12:24:40;;;;;;;8.37;4.53;;;19.80;99.90;;;;;;4999136;28;20733;-87
2022/11/08 12:27:53;;;;;;;7.70;4.20;;;18.80;99.90;;;;;;4999251;28;20242;-85
2022/11/08 12:30:29;;;;;;;10.07;4.50;;;17.70;99.90;;;;;;4902706;29;20346;-86
2022/11/08 12:33:17;;;;;;;9.07;4.27;;;17.50;99.90;;;;;;4917927;29;20614;-88
2022/11/08 12:35:57;;;;;;;8.10;4.43;;;17.30;99.90;;;;;;4918245;29;20229;-86
2022/11/08 12:38:36;;;;;;;10.33;4.27;;;17.50;99.90;;;;;;4902391;29;20300;-87
2022/11/08 12:41:12;;;;;;;8.07;4.73;;;17.80;99.90;;;;;;4903109;29;20210;-86
2022/11/08 12:43:57;;;;;;;7.73;4.00;;;18.10;99.90;;;;;;4918991;29;20567;-84
2022/11/08 12:46:25;;;;;;;9.40;4.37;;;18.20;99.90;;;;;;4917884;29;20601;-86
2022/11/08 12:49:19;;;;;;;8.80;4.20;;;18.60;99.90;;;;;;4917774;29;20203;-83
2022/11/08 12:51:46;;;;;;;8.97;4.20;;;18.90;99.90;;;;;;4917811;29;20609;-83
2022/11/08 12:54:19;;;;;;;5.80;3.50;;;18.90;99.90;;;;;;4901700;29;20681;-80
2022/11/08 12:56:48;;;;;;;7.27;4.20;;;18.90;99.90;;;;;;4917390;29;20219;-83
2022/11/08 12:59:30;;;;;;;8.33;3.97;;;18.70;99.90;;;;;;4901971;29;20203;-85
2022/11/08 13:01:58;;;;;;;7.37;3.90;;;18.60;99.90;;;;;;4902003;29;20242;-88
2022/11/08 13:04:42;;;;;;;9.03;4.10;;;18.40;99.90;;;;;;4901933;29;20210;-86
2022/11/08 13:07:44;;;;;;;9.63;3.70;;;18.30;99.90;;;;;;5017202;28;20200;-83
2022/11/08 13:10:17;;;;;;;8.13;3.80;;;18.20;99.90;;;;;;4999696;28;20204;-86
2022/11/08 13:13:14;;;;;;;6.50;3.40;;;18.10;99.90;;;;;;4999117;28;20204;-80
2022/11/08 13:16:14;;;;;;;8.23;3.67;;;17.60;99.90;;;;;;4998555;28;20684;-84
2022/11/08 13:19:13;;;;;;;9.77;3.80;;;17.50;99.90;;;;;;4998454;28;20192;-86
2022/11/08 13:21:41;;;;;;;5.00;3.33;;;17.60;99.90;;;;;;5016223;28;20730;-83
2022/11/08 13:24:09;;;;;;;7.07;3.80;;;17.80;99.90;;;;;;5016193;28;20192;-84